Time;durP1;ratioP1;P1;durP2;ratioP2;P2;SDS_P1;SDS_P2;PMS_P1;PMS_P2;Temp;Humidity;BMP_temperature;BMP_pressure;BME280_temperature;BME280_humidity;BME280_pressure;Samples;Min_cycle;Max_cycle;Signal;HPM_P1;HPM_P2
2022/04/20 00:00:52;;;;;;;11.30;6.90;;;;;;;1.62;100.00;98446.63;4485814;31;20156;-69
2022/04/20 00:03:20;;;;;;;12.15;7.20;;;;;;;1.66;100.00;98446.37;4485414;31;20088;-70
2022/04/20 00:05:47;;;;;;;11.75;7.68;;;;;;;1.65;100.00;98447.31;4485740;32;20089;-69
2022/04/20 00:08:14;;;;;;;13.40;7.05;;;;;;;1.70;100.00;98449.62;4485440;31;20159;-69
2022/04/20 00:10:41;;;;;;;12.70;7.03;;;;;;;1.71;100.00;98446.94;4485809;32;20124;-69
2022/04/20 00:13:09;;;;;;;11.07;7.28;;;;;;;1.73;100.00;98449.44;4485718;31;20094;-69
2022/04/20 00:15:42;;;;;;;14.23;6.93;;;;;;;1.72;100.00;98451.16;4485892;31;20480;-69
2022/04/20 00:18:09;;;;;;;8.65;6.05;;;;;;;1.76;100.00;98454.41;4485501;32;20584;-70
2022/04/20 00:20:36;;;;;;;11.77;7.28;;;;;;;1.79;100.00;98454.25;4485515;31;20080;-69
2022/04/20 00:23:03;;;;;;;10.48;7.03;;;;;;;1.83;100.00;98452.31;4485416;31;20536;-69
2022/04/20 00:25:30;;;;;;;14.80;7.10;;;;;;;1.94;100.00;98452.50;4485576;31;20115;-69
2022/04/20 00:27:57;;;;;;;9.55;6.00;;;;;;;2.02;100.00;98446.87;4485401;31;20097;-69
2022/04/20 00:30:25;;;;;;;12.77;6.57;;;;;;;2.03;100.00;98449.38;4485575;31;20555;-69
2022/04/20 00:32:52;;;;;;;12.07;7.32;;;;;;;2.06;100.00;98450.94;4485541;31;20484;-69
2022/04/20 00:35:19;;;;;;;11.75;7.10;;;;;;;2.10;100.00;98452.41;4485269;31;20164;-69
2022/04/20 00:37:47;;;;;;;10.45;6.82;;;;;;;2.15;100.00;98445.25;4485695;32;20492;-69
2022/04/20 00:40:14;;;;;;;11.38;6.80;;;;;;;2.14;100.00;98448.75;4485322;31;20090;-69
2022/04/20 00:42:42;;;;;;;10.82;6.62;;;;;;;2.11;100.00;98446.34;4485528;31;20374;-69
2022/04/20 00:45:11;;;;;;;10.82;6.20;;;;;;;2.10;100.00;98448.06;4485497;31;20619;-69
2022/04/20 00:47:42;;;;;;;11.00;6.43;;;;;;;2.11;100.00;98448.94;4485554;31;20088;-69
2022/04/20 00:50:12;;;;;;;13.43;6.28;;;;;;;2.10;100.00;98452.41;4485567;32;20076;-69
2022/04/20 00:52:39;;;;;;;13.20;6.75;;;;;;;2.08;100.00;98454.28;4485539;31;20092;-69
2022/04/20 00:55:27;;;;;;;13.48;7.12;;;;;;;2.04;100.00;98458.78;4485173;32;20085;-69
2022/04/20 00:57:54;;;;;;;12.80;6.60;;;;;;;2.02;100.00;98455.47;4485614;31;20359;-69
2022/04/20 01:00:21;;;;;;;12.93;7.25;;;;;;;1.98;100.00;98461.72;4485510;32;20092;-69
2022/04/20 01:02:49;;;;;;;12.70;7.05;;;;;;;1.94;100.00;98457.69;4485622;31;20435;-69
2022/04/20 01:05:16;;;;;;;8.85;5.75;;;;;;;1.93;100.00;98459.41;4485082;31;20139;-69
2022/04/20 01:07:44;;;;;;;12.55;5.90;;;;;;;1.93;100.00;98462.00;4485428;31;20473;-69
2022/04/20 01:10:12;;;;;;;9.52;5.90;;;;;;;1.89;100.00;98462.28;4485298;31;20097;-69
2022/04/20 01:12:43;;;;;;;9.50;6.37;;;;;;;1.90;100.00;98456.19;4485316;32;20114;-69
2022/04/20 01:15:12;;;;;;;7.95;5.78;;;;;;;1.88;100.00;98461.44;4485288;31;20096;-70
2022/04/20 01:17:42;;;;;;;10.52;6.28;;;;;;;1.88;100.00;98458.03;4485438;31;20085;-70
2022/04/20 01:20:13;;;;;;;11.60;6.10;;;;;;;1.89;100.00;98457.97;4484989;31;20188;-69
2022/04/20 01:22:41;;;;;;;11.18;6.62;;;;;;;1.90;100.00;98459.59;4485484;31;20123;-69
2022/04/20 01:25:13;;;;;;;10.48;6.37;;;;;;;1.97;100.00;98466.97;4485243;31;20378;-70
2022/04/20 01:27:41;;;;;;;10.93;5.82;;;;;;;1.98;100.00;98466.06;4485466;31;20144;-69
2022/04/20 01:30:11;;;;;;;9.00;5.97;;;;;;;1.95;100.00;98469.66;4485165;32;20085;-69
2022/04/20 01:32:38;;;;;;;12.13;6.40;;;;;;;1.98;100.00;98473.81;4485275;31;20100;-70
2022/04/20 01:35:06;;;;;;;8.48;5.60;;;;;;;1.94;100.00;98471.41;4484611;31;20484;-69
2022/04/20 01:37:33;;;;;;;9.05;6.00;;;;;;;1.93;100.00;98476.69;4485144;31;20101;-69
2022/04/20 01:40:01;;;;;;;9.15;5.37;;;;;;;1.91;100.00;98474.19;4485284;31;20395;-70
2022/04/20 01:42:28;;;;;;;13.32;5.60;;;;;;;2.00;100.00;98471.97;4485128;31;20118;-69
2022/04/20 01:44:56;;;;;;;8.48;5.72;;;;;;;2.03;100.00;98476.94;4485239;31;20167;-69
2022/04/20 01:47:26;;;;;;;9.70;6.00;;;;;;;2.02;100.00;98476.13;4485019;31;20127;-69
2022/04/20 01:49:53;;;;;;;11.98;6.70;;;;;;;2.07;100.00;98473.28;4485146;31;20476;-69
2022/04/20 01:52:20;;;;;;;9.40;5.87;;;;;;;2.08;100.00;98477.53;4484829;32;20160;-69
2022/04/20 01:54:49;;;;;;;8.73;5.57;;;;;;;2.05;100.00;98475.94;4484917;31;20775;-69
2022/04/20 01:57:17;;;;;;;8.75;5.85;;;;;;;2.08;100.00;98472.38;4485098;31;20119;-69
2022/04/20 01:59:45;;;;;;;12.25;6.28;;;;;;;2.06;100.00;98466.44;4485184;31;20179;-69
2022/04/20 02:05:03;;;;;;;11.93;5.72;;;;;;;2.07;100.00;98470.69;4484878;31;20556;-69
2022/04/20 02:07:31;;;;;;;9.70;5.72;;;;;;;2.16;100.00;98474.50;4484980;31;20112;-69
2022/04/20 02:09:59;;;;;;;9.45;5.82;;;;;;;2.17;99.83;98464.06;4484970;31;20084;-69
2022/04/20 02:12:26;;;;;;;8.35;5.85;;;;;;;2.19;99.71;98472.53;4484205;31;20092;-69
2022/04/20 02:14:54;;;;;;;8.32;5.22;;;;;;;2.33;99.06;98465.72;4484809;32;20172;-69
2022/04/20 02:17:29;;;;;;;9.80;5.53;;;;;;;2.43;98.12;98461.66;4484770;31;20089;-69
2022/04/20 02:19:58;;;;;;;9.60;6.20;;;;;;;2.42;97.88;98463.44;4484529;31;20094;-69
2022/04/20 02:22:25;;;;;;;9.93;6.37;;;;;;;2.51;97.25;98467.19;4484296;31;20085;-69
2022/04/20 02:24:53;;;;;;;8.02;5.07;;;;;;;2.45;97.41;98463.22;4484872;31;20096;-69
2022/04/20 02:27:20;;;;;;;10.45;5.97;;;;;;;2.45;97.49;98462.37;4484401;31;20512;-69
2022/04/20 02:29:47;;;;;;;11.60;5.90;;;;;;;2.48;97.44;98459.59;4484114;31;20533;-69
2022/04/20 02:32:15;;;;;;;9.40;6.18;;;;;;;2.55;97.04;98458.31;4484496;32;20119;-69
2022/04/20 02:34:43;;;;;;;10.88;6.37;;;;;;;2.51;97.08;98461.19;4484240;32;20096;-70
2022/04/20 02:37:10;;;;;;;8.65;5.93;;;;;;;2.55;96.76;98452.31;4484094;31;20156;-69
2022/04/20 02:39:37;;;;;;;8.05;5.30;;;;;;;2.55;96.61;98453.16;4484347;31;20104;-69
2022/04/20 02:42:06;;;;;;;7.32;5.65;;;;;;;2.59;96.47;98456.34;4484021;32;20104;-69
2022/04/20 02:44:33;;;;;;;9.48;6.10;;;;;;;2.58;96.19;98457.31;4484611;31;20494;-69
2022/04/20 02:47:01;;;;;;;10.10;5.90;;;;;;;2.51;96.40;98467.19;4483851;31;20089;-69
2022/04/20 02:49:28;;;;;;;11.12;6.37;;;;;;;2.48;96.44;98464.78;4482795;32;20149;-69
2022/04/20 02:51:55;;;;;;;10.02;6.10;;;;;;;2.53;96.32;98461.91;4484228;31;20088;-69
2022/04/20 02:54:23;;;;;;;8.02;5.37;;;;;;;2.54;96.05;98454.06;4484273;31;20104;-69
2022/04/20 02:56:51;;;;;;;10.30;5.55;;;;;;;2.60;95.62;98456.28;4484031;32;20084;-69
2022/04/20 02:59:18;;;;;;;9.43;5.93;;;;;;;2.63;95.40;98455.25;4483997;31;20469;-69
2022/04/20 03:01:45;;;;;;;9.70;5.37;;;;;;;2.64;95.22;98467.28;4483818;31;20127;-69
2022/04/20 03:04:13;;;;;;;10.38;5.75;;;;;;;2.67;94.96;98465.31;4483847;32;20145;-69
2022/04/20 03:06:41;;;;;;;9.80;5.70;;;;;;;2.70;94.54;98464.31;4483957;31;20396;-69
2022/04/20 03:09:08;;;;;;;9.77;5.97;;;;;;;2.74;94.27;98465.78;4484145;31;20089;-69
2022/04/20 03:11:36;;;;;;;10.02;5.53;;;;;;;2.77;93.96;98468.19;4484032;32;20088;-69
2022/04/20 03:14:03;;;;;;;10.90;5.22;;;;;;;2.82;93.71;98458.38;4484094;31;20087;-70
2022/04/20 03:16:30;;;;;;;7.40;5.00;;;;;;;2.83;93.59;98461.78;4483847;31;20114;-69
2022/04/20 03:19:00;;;;;;;9.57;5.68;;;;;;;2.83;93.74;98466.94;4484073;31;20165;-69
2022/04/20 03:21:29;;;;;;;8.10;5.10;;;;;;;2.81;93.68;98464.44;4483821;31;20162;-69
2022/04/20 03:23:57;;;;;;;9.35;5.82;;;;;;;2.83;93.34;98470.38;4484036;31;20092;-69
2022/04/20 03:26:24;;;;;;;7.90;6.03;;;;;;;2.82;93.02;98475.66;4486048;31;20626;-69
2022/04/20 03:28:52;;;;;;;7.45;5.70;;;;;;;2.81;93.08;98469.63;4486238;31;20104;-69
2022/04/20 03:31:20;;;;;;;7.87;5.70;;;;;;;2.92;92.50;98476.75;4486039;31;20104;-69
2022/04/20 03:33:47;;;;;;;10.52;5.70;;;;;;;3.09;91.47;98467.91;4484329;32;20127;-69
2022/04/20 03:36:14;;;;;;;9.07;5.78;;;;;;;2.96;91.67;98470.44;4484629;32;20143;-69
2022/04/20 03:38:42;;;;;;;9.85;5.75;;;;;;;3.00;91.44;98476.25;4485891;31;20450;-69
2022/04/20 03:41:09;;;;;;;8.90;5.37;;;;;;;2.96;91.54;98478.19;4485855;31;20480;-69
2022/04/20 03:43:36;;;;;;;9.77;5.60;;;;;;;3.04;91.45;98479.47;4485995;31;20154;-69
2022/04/20 03:46:05;;;;;;;8.70;5.18;;;;;;;3.02;91.25;98487.34;4485824;32;20108;-69
2022/04/20 03:48:33;;;;;;;9.38;5.97;;;;;;;2.94;91.65;98489.59;4485720;31;20418;-69
2022/04/20 03:51:00;;;;;;;7.32;5.15;;;;;;;2.93;91.99;98488.72;4485761;31;20431;-69
2022/04/20 03:53:28;;;;;;;9.13;5.35;;;;;;;2.96;92.04;98480.78;4485839;32;20518;-69
2022/04/20 03:55:56;;;;;;;9.35;5.90;;;;;;;3.00;91.63;98484.84;4485952;31;20468;-69
2022/04/20 03:58:24;;;;;;;8.55;5.20;;;;;;;3.09;91.18;98482.59;4485673;31;20142;-69
2022/04/20 04:00:52;;;;;;;11.80;6.00;;;;;;;3.10;90.79;98489.44;4485935;31;20127;-69
2022/04/20 04:03:19;;;;;;;9.73;5.15;;;;;;;3.13;91.08;98479.72;4485625;31;20457;-69
2022/04/20 04:05:47;;;;;;;7.60;4.97;;;;;;;3.13;91.26;98484.06;4485749;31;20127;-71
2022/04/20 04:08:15;;;;;;;9.85;5.70;;;;;;;3.15;91.20;98488.22;4485572;31;20152;-71
2022/04/20 04:10:42;;;;;;;12.52;6.43;;;;;;;3.09;91.50;98492.94;4485782;31;20152;-71
2022/04/20 04:13:10;;;;;;;10.02;5.78;;;;;;;3.01;91.79;98496.00;4485783;31;20109;-71
2022/04/20 04:15:38;;;;;;;10.30;6.28;;;;;;;3.10;91.24;98489.44;4484812;31;20104;-71
2022/04/20 04:18:06;;;;;;;9.18;6.15;;;;;;;3.07;91.49;98493.03;4483671;31;20160;-71
2022/04/20 04:20:34;;;;;;;9.82;5.68;;;;;;;3.06;91.71;98485.38;4484180;31;20438;-71
2022/04/20 04:23:01;;;;;;;10.15;6.53;;;;;;;3.09;91.61;98492.94;4486003;31;20114;-71
2022/04/20 04:25:29;;;;;;;11.40;6.20;;;;;;;3.09;91.48;98498.97;4491204;31;20176;-71
2022/04/20 04:27:57;;;;;;;9.82;5.57;;;;;;;3.12;91.31;98498.78;4490760;31;20092;-71
2022/04/20 04:30:24;;;;;;;9.02;5.82;;;;;;;3.21;90.77;98497.38;4493061;31;20127;-71
2022/04/20 04:32:53;;;;;;;9.32;6.03;;;;;;;3.31;89.97;98498.41;4490742;31;20096;-71
2022/04/20 04:35:21;;;;;;;12.20;6.28;;;;;;;3.27;90.09;98507.34;4487936;31;20097;-71
2022/04/20 04:37:49;;;;;;;11.73;6.32;;;;;;;3.21;90.60;98510.31;4491586;31;20118;-71
2022/04/20 04:40:18;;;;;;;11.90;6.87;;;;;;;3.11;91.58;98506.63;4493661;31;20100;-71
2022/04/20 04:42:46;;;;;;;11.40;6.25;;;;;;;3.08;92.07;98512.00;4492868;31;20113;-71
2022/04/20 04:50:46;;;;;;;11.20;6.93;;;;;;;2.80;94.06;98524.03;4489542;31;20180;-71
2022/04/20 04:53:14;;;;;;;12.00;7.20;;;;;;;2.70;94.30;98528.16;4498718;31;20649;-71
2022/04/20 04:55:41;;;;;;;11.82;7.57;;;;;;;2.69;94.41;98521.31;4498384;31;20092;-71
2022/04/20 04:58:08;;;;;;;10.38;7.05;;;;;;;2.58;95.15;98530.53;4496869;31;20446;-71
2022/04/20 05:00:36;;;;;;;12.88;7.00;;;;;;;2.53;95.79;98537.75;4496380;31;20180;-71
2022/04/20 05:03:03;;;;;;;13.02;7.25;;;;;;;2.57;95.84;98531.44;4486619;31;20122;-71
2022/04/20 05:05:31;;;;;;;12.82;7.20;;;;;;;2.49;96.37;98531.09;4484259;31;20116;-71
2022/04/20 05:07:58;;;;;;;13.27;7.50;;;;;;;2.66;96.07;98528.34;4481945;32;20513;-71
2022/04/20 05:10:25;;;;;;;11.02;6.75;;;;;;;2.92;95.12;98533.66;4484169;32;20097;-71
2022/04/20 05:12:53;;;;;;;11.82;7.12;;;;;;;3.17;94.19;98524.38;4471859;31;20123;-71
2022/04/20 05:15:20;;;;;;;13.02;6.20;;;;;;;3.38;93.05;98530.78;4481069;31;20160;-71
2022/04/20 05:17:47;;;;;;;10.85;5.95;;;;;;;3.66;91.40;98531.56;4480795;32;20092;-71
2022/04/20 05:20:14;;;;;;;9.80;6.28;;;;;;;3.85;90.41;98533.00;4480891;31;20127;-71
2022/04/20 05:22:42;;;;;;;7.32;5.47;;;;;;;4.07;88.72;98534.97;4487068;31;20163;-71
2022/04/20 05:25:10;;;;;;;10.48;5.90;;;;;;;4.26;87.51;98529.41;4477915;31;20092;-71
2022/04/20 05:27:37;;;;;;;8.65;6.10;;;;;;;4.43;86.74;98529.09;4471922;31;20529;-71
2022/04/20 05:30:05;;;;;;;9.18;5.60;;;;;;;4.58;85.08;98535.00;4476941;31;20403;-71
2022/04/20 05:32:33;;;;;;;9.18;5.47;;;;;;;4.75;84.45;98546.84;4483219;31;20134;-71
2022/04/20 05:35:01;;;;;;;8.45;5.12;;;;;;;4.96;83.66;98539.31;4485261;31;20155;-71
2022/04/20 05:43:08;;;;;;;8.43;4.53;;;;;;;5.32;79.35;98542.03;4481760;32;20183;-69
2022/04/20 05:45:36;;;;;;;6.97;5.03;;;;;;;5.44;78.11;98541.12;4481151;31;20113;-69
2022/04/20 05:48:05;;;;;;;6.80;4.82;;;;;;;5.72;77.01;98540.91;4474014;32;20108;-70
2022/04/20 05:50:32;;;;;;;9.63;4.37;;;;;;;5.81;76.58;98543.69;4480229;32;20176;-70
2022/04/20 05:53:00;;;;;;;6.72;4.62;;;;;;;5.81;75.28;98538.47;4472316;32;20131;-69
2022/04/20 05:55:27;;;;;;;6.55;4.70;;;;;;;5.81;74.92;98541.09;4483383;31;20100;-69
2022/04/20 05:57:55;;;;;;;7.40;4.80;;;;;;;5.90;73.74;98543.94;4479359;32;20112;-70
2022/04/20 06:00:22;;;;;;;6.68;4.75;;;;;;;5.84;75.04;98545.19;4466419;32;20100;-70
2022/04/20 06:02:54;;;;;;;7.90;4.53;;;;;;;5.99;74.76;98554.50;4479041;31;20104;-69
2022/04/20 06:05:21;;;;;;;7.70;5.15;;;;;;;6.10;74.43;98548.53;4476099;32;111450;-69
2022/04/20 06:07:49;;;;;;;7.70;4.87;;;;;;;6.30;74.26;98548.78;4479464;31;20152;-70
2022/04/20 06:10:19;;;;;;;7.25;4.80;;;;;;;6.42;71.39;98547.88;4476302;32;20625;-70
2022/04/20 06:12:47;;;;;;;7.00;4.80;;;;;;;6.49;71.08;98546.44;4474523;32;20128;-70
2022/04/20 06:15:17;;;;;;;5.93;4.40;;;;;;;6.44;70.69;98543.38;4483481;31;20457;-70
2022/04/20 06:17:45;;;;;;;6.85;4.85;;;;;;;6.64;70.81;98551.44;4481893;31;20092;-70
2022/04/20 06:20:12;;;;;;;8.57;4.95;;;;;;;6.80;70.31;98543.25;4481136;31;20961;-71
2022/04/20 06:22:40;;;;;;;4.95;4.05;;;;;;;6.70;69.37;98549.19;4482613;32;20138;-69
2022/04/20 06:25:10;;;;;;;6.07;4.32;;;;;;;6.54;68.36;98546.94;4479086;32;20100;-71
2022/04/20 06:27:37;;;;;;;6.25;4.47;;;;;;;6.52;68.64;98548.81;4473732;31;20104;-71
2022/04/20 06:30:06;;;;;;;8.23;4.87;;;;;;;6.77;68.39;98557.38;4480705;32;20100;-71
2022/04/20 06:32:33;;;;;;;6.87;4.62;;;;;;;6.80;67.81;98554.53;4482550;31;20112;-71
2022/04/20 06:35:01;;;;;;;6.20;4.30;;;;;;;6.99;67.81;98550.50;4481943;31;20104;-71
2022/04/20 06:37:28;;;;;;;7.37;4.60;;;;;;;6.79;67.40;98554.66;4481962;31;20096;-71
2022/04/20 06:39:57;;;;;;;5.18;4.28;;;;;;;6.88;68.26;98549.53;4478127;32;20093;-70
2022/04/20 06:42:27;;;;;;;6.32;4.80;;;;;;;6.84;67.83;98548.13;4478948;31;20125;-71
2022/04/20 06:44:55;;;;;;;7.78;4.72;;;;;;;7.04;67.21;98551.78;4474737;31;20512;-71
2022/04/20 06:47:22;;;;;;;5.80;4.80;;;;;;;6.91;67.79;98543.28;4482769;31;20088;-70
2022/04/20 06:49:49;;;;;;;8.95;5.18;;;;;;;6.90;69.44;98549.44;4480963;31;20131;-70
2022/04/20 07:00:39;;;;;;;9.45;5.95;;;;;;;7.57;69.75;98521.56;4481094;32;20116;-71
2022/04/20 07:03:06;;;;;;;8.48;5.90;;;;;;;7.66;68.08;98527.81;4481712;31;20088;-71
2022/04/20 07:05:35;;;;;;;6.57;4.60;;;;;;;7.78;66.84;98526.81;4486371;31;20108;-69
2022/04/20 07:08:03;;;;;;;7.90;5.60;;;;;;;7.86;65.58;98534.88;4476596;31;20156;-70
2022/04/20 07:10:31;;;;;;;9.98;6.07;;;;;;;7.93;66.70;98525.59;4475624;31;20112;-69
2022/04/20 07:12:59;;;;;;;7.85;5.35;;;;;;;7.82;66.48;98523.84;4481128;31;20096;-70
2022/04/20 07:15:26;;;;;;;8.50;5.50;;;;;;;7.73;64.62;98531.59;4472995;31;20123;-71
2022/04/20 07:17:54;;;;;;;10.32;6.30;;;;;;;7.65;64.62;98527.00;4482349;31;20168;-68
2022/04/20 07:20:26;;;;;;;10.68;6.60;;;;;;;7.88;68.05;98529.53;4483409;31;20762;-70
2022/04/20 07:22:54;;;;;;;11.05;5.90;;;;;;;7.78;67.98;98532.03;4483538;32;20096;-71
2022/04/20 07:25:23;;;;;;;11.85;7.40;;;;;;;7.87;66.69;98535.69;4486667;31;20188;-71
2022/04/20 07:27:50;;;;;;;11.35;6.97;;;;;;;7.95;70.09;98531.50;4477545;32;20089;-71
2022/04/20 07:30:18;;;;;;;9.98;6.72;;;;;;;8.10;67.74;98533.78;4481810;32;20100;-70
2022/04/20 07:32:47;;;;;;;10.32;6.50;;;;;;;8.09;67.22;98532.16;4484101;31;20464;-70
2022/04/20 07:35:16;;;;;;;9.13;6.20;;;;;;;8.12;66.66;98534.50;4482374;31;20092;-71
2022/04/20 07:37:44;;;;;;;10.35;7.50;;;;;;;8.10;65.30;98536.38;4480714;31;20621;-72
2022/04/20 07:40:12;;;;;;;10.48;7.65;;;;;;;7.97;68.66;98534.78;4485506;31;20504;-70
2022/04/20 07:42:41;;;;;;;10.38;7.50;;;;;;;8.12;68.85;98532.72;4484381;31;20139;-70
2022/04/20 07:45:09;;;;;;;12.05;7.57;;;;;;;8.06;68.80;98529.78;4478503;31;20127;-69
2022/04/20 07:47:37;;;;;;;14.80;8.65;;;;;;;8.12;66.21;98539.72;4475758;31;20761;-70
2022/04/20 07:50:23;;;;;;;9.32;7.05;;;;;;;8.21;63.81;98549.38;4479749;32;20108;-70
2022/04/20 07:52:55;;;;;;;16.00;7.97;;;;;;;8.23;66.63;98541.44;4484709;31;20428;-70
2022/04/20 07:55:32;;;;;;;25.05;8.15;;;;;;;8.28;66.15;98540.09;4479575;31;20516;-70
2022/04/20 07:58:01;;;;;;;11.23;7.85;;;;;;;8.42;67.97;98540.69;4483231;31;20108;-70
2022/04/20 08:00:29;;;;;;;10.82;7.57;;;;;;;8.42;67.03;98544.16;4483768;31;20217;-70
2022/04/20 08:03:10;;;;;;;18.62;7.18;;;;;;;8.64;67.15;98544.97;4482276;31;20805;-69
2022/04/20 08:05:38;;;;;;;12.15;7.18;;;;;;;8.62;64.91;98541.69;4482359;32;20107;-68
2022/04/20 08:08:07;;;;;;;9.50;6.78;;;;;;;8.55;63.81;98533.53;4482263;31;20114;-69
2022/04/20 08:10:35;;;;;;;10.90;6.40;;;;;;;8.74;64.49;98534.59;4482177;31;20420;-70
2022/04/20 08:14:09;;;;;;;10.13;6.30;;;;;;;8.70;60.95;98531.41;4484178;31;20108;-69
2022/04/20 08:15:51;;;;;;;8.20;6.28;;;;;;;8.99;62.04;98531.53;4482378;31;20449;-70
2022/04/20 08:18:19;;;;;;;7.50;5.95;;;;;;;8.91;60.56;98530.53;4481003;31;20096;-70
2022/04/20 08:20:49;;;;;;;10.43;6.25;;;;;;;8.91;59.48;98536.56;4481226;31;20128;-70
2022/04/20 08:23:17;;;;;;;8.27;6.00;;;;;;;9.03;60.65;98519.81;4480297;31;20115;-69
2022/04/20 08:25:45;;;;;;;9.63;7.12;;;;;;;9.02;58.74;98517.34;4477399;31;20530;-70
2022/04/20 08:28:13;;;;;;;9.80;6.60;;;;;;;9.05;60.57;98517.06;4482840;31;20092;-69
2022/04/20 08:30:40;;;;;;;10.77;7.10;;;;;;;9.05;59.71;98511.84;4485116;32;20124;-69
2022/04/20 08:33:08;;;;;;;11.02;6.97;;;;;;;9.13;63.26;98519.03;4482742;31;20096;-69
2022/04/20 08:35:36;;;;;;;8.20;5.87;;;;;;;9.31;58.21;98516.59;4481436;31;20093;-69
2022/04/20 08:38:05;;;;;;;7.93;5.43;;;;;;;9.26;56.72;98517.00;4478049;32;20085;-69
2022/04/20 08:40:32;;;;;;;8.88;6.32;;;;;;;9.18;54.82;98522.06;4477928;31;20138;-69
2022/04/20 08:43:01;;;;;;;10.82;5.62;;;;;;;9.18;58.02;98512.44;4476808;31;20168;-70
2022/04/20 08:45:29;;;;;;;5.28;4.07;;;;;;;9.10;54.74;98520.13;4478152;31;20165;-69
2022/04/20 08:47:57;;;;;;;8.95;5.43;;;;;;;9.15;52.64;98514.50;4482791;32;20156;-69
2022/04/20 08:50:25;;;;;;;7.40;4.72;;;;;;;9.39;53.87;98514.94;4480016;32;20165;-69
2022/04/20 08:52:55;;;;;;;7.05;4.55;;;;;;;9.44;52.06;98511.09;4480048;32;20130;-69
2022/04/20 08:55:22;;;;;;;9.20;4.85;;;;;;;9.38;50.67;98512.47;4483115;31;20080;-69
2022/04/20 08:57:52;;;;;;;7.12;5.68;;;;;;;9.24;51.51;98511.09;4478856;31;20124;-68
2022/04/20 09:00:22;;;;;;;9.73;6.18;;;;;;;9.49;52.70;98506.28;4477805;32;20120;-69
2022/04/20 09:02:55;;;;;;;7.87;5.60;;;;;;;9.66;53.35;98505.63;4480830;31;20123;-69
2022/04/20 09:05:24;;;;;;;10.37;5.77;;;;;;;9.88;53.62;98508.91;4481845;31;20469;-69
2022/04/20 09:07:52;;;;;;;9.07;5.05;;;;;;;9.94;52.36;98508.34;4480725;31;20149;-70
2022/04/20 09:10:20;;;;;;;8.15;5.47;;;;;;;9.97;52.40;98513.31;4474642;31;20157;-70
2022/04/20 09:13:11;;;;;;;12.02;6.60;;;;;;;10.04;51.77;98510.97;4479828;32;21111;-70
2022/04/20 09:15:39;;;;;;;10.20;6.12;;;;;;;9.76;51.69;98508.22;4477273;32;20105;-70
2022/04/20 09:18:08;;;;;;;6.75;5.43;;;;;;;9.69;52.25;98501.88;4479626;32;20742;-70
2022/04/20 09:20:37;;;;;;;7.00;5.37;;;;;;;9.69;51.35;98505.34;4482899;31;20101;-70
2022/04/20 09:23:09;;;;;;;6.95;5.20;;;;;;;9.77;49.32;98505.47;4480800;31;20092;-70
2022/04/20 09:25:49;;;;;;;7.32;4.82;;;;;;;10.04;50.88;98506.56;4481045;32;20426;-70
2022/04/20 09:28:16;;;;;;;8.88;5.57;;;;;;;10.29;48.96;98501.66;4482638;31;20093;-70
2022/04/20 09:30:44;;;;;;;10.60;5.95;;;;;;;10.27;47.59;98501.00;4474192;32;20112;-68
2022/04/20 09:33:15;;;;;;;9.60;5.87;;;;;;;10.57;47.92;98504.38;4479775;32;20092;-69
2022/04/20 09:35:53;;;;;;;8.18;5.32;;;;;;;10.62;49.62;98496.91;4472654;32;20087;-70
2022/04/20 09:38:21;;;;;;;11.27;5.50;;;;;;;10.75;47.47;98497.41;4479396;32;20420;-70
2022/04/20 09:40:49;;;;;;;7.72;5.00;;;;;;;10.95;46.35;98490.28;4480243;32;20172;-69
2022/04/20 09:43:19;;;;;;;8.02;5.22;;;;;;;11.19;45.36;98494.97;4480734;31;21247;-70
2022/04/20 09:46:04;;;;;;;6.62;5.45;;;;;;;11.24;44.79;98480.59;4479616;31;20100;-70
2022/04/20 09:51:20;;;;;;;5.35;4.85;;;;;;;11.20;46.60;98482.66;4477600;32;20140;-70
2022/04/20 09:53:53;;;;;;;8.80;5.45;;;;;;;10.75;46.20;98491.31;4483167;31;20100;-70
2022/04/20 09:56:25;;;;;;;7.37;5.22;;;;;;;10.47;45.38;98489.50;4473858;32;20187;-69
2022/04/20 09:59:02;;;;;;;6.18;4.60;;;;;;;10.62;46.23;98491.66;4473904;31;20073;-70
2022/04/20 10:01:35;;;;;;;7.30;5.00;;;;;;;10.65;45.98;98491.37;4479144;32;20104;-70
2022/04/20 10:04:04;;;;;;;10.68;5.37;;;;;;;11.11;45.57;98479.16;4473685;32;20092;-71
2022/04/20 10:06:32;;;;;;;6.30;5.32;;;;;;;11.10;46.70;98479.31;4480117;32;20089;-70
2022/04/20 10:09:00;;;;;;;7.72;5.32;;;;;;;10.74;46.09;98489.69;4481033;31;20100;-71
2022/04/20 10:11:27;;;;;;;8.07;6.07;;;;;;;10.69;45.87;98494.53;4482098;32;20104;-71
2022/04/20 10:16:47;;;;;;;11.27;5.62;;;;;;;11.49;47.63;98473.75;4477442;32;20167;-71
2022/04/20 10:19:27;;;;;;;7.90;5.47;;;;;;;11.50;45.18;98472.78;4481201;32;20105;-71
2022/04/20 10:21:55;;;;;;;6.28;5.45;;;;;;;11.96;43.39;98478.78;4479620;32;20814;-71
2022/04/20 10:24:32;;;;;;;9.63;6.10;;;;;;;11.61;43.71;98477.84;4475750;32;20114;-70
2022/04/20 10:27:06;;;;;;;7.97;5.97;;;;;;;11.28;44.86;98476.69;4476665;32;20484;-71
2022/04/20 10:29:46;;;;;;;10.45;5.70;;;;;;;11.04;44.96;98475.47;4479692;31;20112;-71
2022/04/20 10:32:25;;;;;;;12.95;7.82;;;;;;;11.58;45.74;98470.22;4478689;32;20153;-70
2022/04/20 10:34:53;;;;;;;10.13;6.80;;;;;;;11.92;46.61;98473.97;4474308;31;20096;-71
2022/04/20 10:37:25;;;;;;;8.77;6.37;;;;;;;12.15;45.33;98467.25;4479598;32;20550;-71
2022/04/20 10:40:12;;;;;;;8.00;6.93;;;;;;;13.02;43.59;98468.94;4476290;32;20382;-70
2022/04/20 10:42:40;;;;;;;10.48;7.20;;;;;;;13.46;41.99;98459.06;4481460;32;20135;-69
2022/04/20 10:45:10;;;;;;;11.90;8.25;;;;;;;13.25;42.34;98470.00;4486448;31;20089;-69
2022/04/20 10:47:41;;;;;;;9.05;7.97;;;;;;;12.89;42.74;98464.16;4479463;31;20215;-70
2022/04/20 10:50:14;;;;;;;9.05;6.93;;;;;;;13.09;44.54;98462.06;4480866;31;20105;-68
2022/04/20 10:52:46;;;;;;;8.57;7.37;;;;;;;12.33;44.15;98461.13;4485573;31;20123;-68
2022/04/20 10:55:15;;;;;;;10.02;8.02;;;;;;;11.72;45.56;98468.91;4482366;32;20153;-70
2022/04/20 10:57:43;;;;;;;11.60;8.13;;;;;;;11.63;47.31;98468.00;4476370;32;20128;-70
2022/04/20 11:00:17;;;;;;;10.38;8.10;;;;;;;12.25;46.27;98465.34;4481619;32;20075;-70
2022/04/20 11:02:54;;;;;;;9.43;7.07;;;;;;;12.55;45.64;98460.59;4484590;31;20454;-70
2022/04/20 11:05:23;;;;;;;9.15;6.15;;;;;;;12.85;44.67;98458.38;4480540;32;20141;-70
2022/04/20 11:07:59;;;;;;;10.55;7.37;;;;;;;12.62;42.52;98458.12;4481545;32;20115;-69
2022/04/20 11:10:28;;;;;;;10.45;7.72;;;;;;;12.31;44.85;98457.81;4483233;31;20076;-70
2022/04/20 11:19:12;;;;;;;10.25;8.30;;;;;;;11.56;47.34;98456.44;4480481;31;20489;-69
2022/04/20 11:22:13;;;;;;;10.75;7.85;;;;;;;11.43;46.99;98459.47;4479198;32;20092;-69
2022/04/20 11:24:42;;;;;;;12.57;7.93;;;;;;;11.56;47.15;98453.00;4443520;32;20101;-69
2022/04/20 11:27:10;;;;;;;8.82;6.12;;;;;;;12.15;45.70;98454.13;4435684;32;20214;-69
2022/04/20 11:29:42;;;;;;;11.90;6.95;;;;;;;12.30;42.62;98445.69;4452909;32;20168;-69
2022/04/20 11:32:10;;;;;;;9.73;6.90;;;;;;;12.14;41.23;98449.03;4453489;32;20127;-69
2022/04/20 11:34:41;;;;;;;10.15;6.25;;;;;;;12.33;41.37;98448.00;4436157;32;20121;-69
2022/04/20 11:37:10;;;;;;;7.37;5.53;;;;;;;12.41;41.60;98448.03;4450708;32;20101;-69
2022/04/20 11:39:37;;;;;;;8.07;5.57;;;;;;;12.21;41.94;98450.06;4454606;32;20261;-69
2022/04/20 11:42:06;;;;;;;9.48;6.07;;;;;;;12.19;41.67;98450.22;4454584;32;20943;-69
2022/04/20 11:44:41;;;;;;;7.35;5.47;;;;;;;11.88;40.91;98458.53;4450661;32;20132;-69
2022/04/20 11:47:11;;;;;;;11.57;5.80;;;;;;;11.88;41.58;98447.19;4445374;32;20105;-68
2022/04/20 11:49:42;;;;;;;9.75;6.68;;;;;;;11.72;41.80;98453.97;4441452;32;20088;-68
2022/04/20 11:52:14;;;;;;;7.87;6.03;;;;;;;11.99;41.15;98446.13;4448142;32;20455;-68
2022/04/20 11:54:46;;;;;;;7.80;6.47;;;;;;;12.39;40.71;98439.47;4454762;32;20124;-68
2022/04/20 11:57:15;;;;;;;9.93;6.70;;;;;;;12.87;39.25;98443.28;4448819;32;20165;-68
2022/04/20 11:59:44;;;;;;;8.80;6.30;;;;;;;12.81;39.60;98436.03;4448653;32;20088;-69
2022/04/20 12:02:13;;;;;;;9.55;6.50;;;;;;;12.35;40.57;98438.16;4478544;31;20520;-69
2022/04/20 12:04:42;;;;;;;9.35;6.10;;;;;;;12.17;40.38;98439.06;4481523;32;20174;-70
2022/04/20 12:07:10;;;;;;;11.15;6.30;;;;;;;12.43;40.16;98438.19;4480168;31;20126;-70
2022/04/20 12:09:40;;;;;;;8.40;5.95;;;;;;;12.77;38.47;98438.16;4479659;31;20122;-70
2022/04/20 12:12:09;;;;;;;8.18;6.00;;;;;;;12.81;38.40;98438.69;4471914;31;20145;-70
2022/04/20 12:14:42;;;;;;;10.40;6.43;;;;;;;13.10;38.03;98429.53;4479055;32;20509;-70
2022/04/20 12:17:20;;;;;;;9.52;6.65;;;;;;;12.99;38.00;98435.09;4480042;31;20168;-70